sensor_id;sensor_type;location;lat;lon;timestamp;pressure;altitude;pressure_sealevel;temperature;humidity
3260;BME280;22469;48.150;14.004;2022-08-06T00:02:26;98175.94;;;26.42;60.03
3260;BME280;22469;48.150;14.004;2022-08-06T00:04:59;98173.00;;;26.55;59.35
3260;BME280;22469;48.150;14.004;2022-08-06T00:07:29;98182.66;;;26.64;58.98
3260;BME280;22469;48.150;14.004;2022-08-06T00:10:11;98187.19;;;26.72;58.17
3260;BME280;22469;48.150;14.004;2022-08-06T00:12:40;98186.06;;;26.47;59.51
3260;BME280;22469;48.150;14.004;2022-08-06T00:15:11;98194.75;;;26.57;59.12
3260;BME280;22469;48.150;14.004;2022-08-06T00:17:44;98198.44;;;26.27;59.87
3260;BME280;22469;48.150;14.004;2022-08-06T00:20:14;98202.94;;;26.44;59.48
3260;BME280;22469;48.150;14.004;2022-08-06T00:22:59;98207.66;;;26.41;60.01
3260;BME280;22469;48.150;14.004;2022-08-06T00:25:28;98210.50;;;26.20;60.90
3260;BME280;22469;48.150;14.004;2022-08-06T00:28:01;98209.09;;;26.26;61.13
3260;BME280;22469;48.150;14.004;2022-08-06T00:30:36;98208.69;;;26.20;60.88
3260;BME280;22469;48.150;14.004;2022-08-06T00:33:04;98214.25;;;26.17;61.34
3260;BME280;22469;48.150;14.004;2022-08-06T00:35:31;98218.88;;;25.96;62.51
3260;BME280;22469;48.150;14.004;2022-08-06T00:38:00;98217.75;;;25.98;62.31
3260;BME280;22469;48.150;14.004;2022-08-06T00:40:28;98218.97;;;26.14;61.63
3260;BME280;22469;48.150;14.004;2022-08-06T00:43:01;98228.13;;;26.00;62.15
3260;BME280;22469;48.150;14.004;2022-08-06T00:45:35;98231.13;;;26.15;61.86
3260;BME280;22469;48.150;14.004;2022-08-06T00:48:07;98240.00;;;26.04;62.49
3260;BME280;22469;48.150;14.004;2022-08-06T00:50:54;98252.59;;;25.91;62.99
3260;BME280;22469;48.150;14.004;2022-08-06T00:53:21;98259.69;;;25.90;62.84
3260;BME280;22469;48.150;14.004;2022-08-06T00:55:49;98267.13;;;25.66;63.59
3260;BME280;22469;48.150;14.004;2022-08-06T00:58:27;98261.88;;;25.75;63.35
3260;BME280;22469;48.150;14.004;2022-08-06T01:01:10;98255.38;;;25.50;63.71
3260;BME280;22469;48.150;14.004;2022-08-06T01:03:46;98260.38;;;25.03;65.54
3260;BME280;22469;48.150;14.004;2022-08-06T01:06:18;98254.06;;;25.25;64.88
3260;BME280;22469;48.150;14.004;2022-08-06T01:09:06;98250.78;;;25.43;64.32
3260;BME280;22469;48.150;14.004;2022-08-06T01:11:37;98249.00;;;25.63;63.75
3260;BME280;22469;48.150;14.004;2022-08-06T01:14:06;98258.94;;;25.49;63.98
3260;BME280;22469;48.150;14.004;2022-08-06T01:19:46;98260.75;;;25.59;63.98
3260;BME280;22469;48.150;14.004;2022-08-06T01:26:18;98266.84;;;25.59;63.42
3260;BME280;22469;48.150;14.004;2022-08-06T01:28:55;98281.34;;;25.44;63.43
3260;BME280;22469;48.150;14.004;2022-08-06T01:31:50;98273.47;;;25.53;63.41
3260;BME280;22469;48.150;14.004;2022-08-06T01:34:33;98287.31;;;25.56;63.25
3260;BME280;22469;48.150;14.004;2022-08-06T01:37:29;98284.25;;;25.70;62.28
3260;BME280;22469;48.150;14.004;2022-08-06T01:40:08;98291.31;;;25.69;62.14
3260;BME280;22469;48.150;14.004;2022-08-06T01:42:41;98296.16;;;25.74;62.22
3260;BME280;22469;48.150;14.004;2022-08-06T01:45:22;98292.75;;;25.83;62.09
3260;BME280;22469;48.150;14.004;2022-08-06T01:48:16;98299.66;;;25.94;61.63
3260;BME280;22469;48.150;14.004;2022-08-06T01:50:57;98301.88;;;25.98;61.66
3260;BME280;22469;48.150;14.004;2022-08-06T01:53:30;98307.25;;;25.97;61.58
3260;BME280;22469;48.150;14.004;2022-08-06T01:56:21;98311.66;;;25.77;62.32
3260;BME280;22469;48.150;14.004;2022-08-06T01:59:10;98309.22;;;25.85;62.50
3260;BME280;22469;48.150;14.004;2022-08-06T02:01:40;98307.81;;;25.81;62.72
3260;BME280;22469;48.150;14.004;2022-08-06T02:04:22;98319.41;;;25.69;63.23
3260;BME280;22469;48.150;14.004;2022-08-06T02:06:53;98323.72;;;25.80;62.64
3260;BME280;22469;48.150;14.004;2022-08-06T02:09:24;98315.56;;;25.83;63.00
3260;BME280;22469;48.150;14.004;2022-08-06T02:12:11;98330.72;;;25.60;63.06
3260;BME280;22469;48.150;14.004;2022-08-06T02:14:52;98338.75;;;25.58;63.61
3260;BME280;22469;48.150;14.004;2022-08-06T02:17:29;98330.03;;;25.48;63.34
3260;BME280;22469;48.150;14.004;2022-08-06T02:20:33;98329.66;;;25.72;62.49
3260;BME280;22469;48.150;14.004;2022-08-06T02:23:17;98338.19;;;25.74;61.54
3260;BME280;22469;48.150;14.004;2022-08-06T02:25:51;98341.69;;;25.74;62.12
3260;BME280;22469;48.150;14.004;2022-08-06T02:28:23;98345.56;;;25.80;61.39
3260;BME280;22469;48.150;14.004;2022-08-06T02:30:56;98344.16;;;25.76;61.71
3260;BME280;22469;48.150;14.004;2022-08-06T02:33:25;98350.97;;;25.79;61.54
3260;BME280;22469;48.150;14.004;2022-08-06T02:36:44;98346.63;;;25.77;61.42
3260;BME280;22469;48.150;14.004;2022-08-06T02:39:33;98342.78;;;25.72;62.00
3260;BME280;22469;48.150;14.004;2022-08-06T02:42:27;98345.47;;;25.82;61.22
3260;BME280;22469;48.150;14.004;2022-08-06T02:45:02;98336.97;;;25.68;62.39
3260;BME280;22469;48.150;14.004;2022-08-06T02:47:39;98338.03;;;25.56;62.41
3260;BME280;22469;48.150;14.004;2022-08-06T02:50:36;98343.03;;;25.59;62.16
3260;BME280;22469;48.150;14.004;2022-08-06T02:53:39;98337.78;;;25.59;61.83
3260;BME280;22469;48.150;14.004;2022-08-06T02:56:32;98340.69;;;25.56;61.44
3260;BME280;22469;48.150;14.004;2022-08-06T02:59:08;98344.84;;;25.68;61.20
3260;BME280;22469;48.150;14.004;2022-08-06T03:01:45;98351.63;;;25.61;60.86
3260;BME280;22469;48.150;14.004;2022-08-06T03:04:18;98351.88;;;25.48;60.41
3260;BME280;22469;48.150;14.004;2022-08-06T03:07:03;98352.53;;;25.41;60.29
3260;BME280;22469;48.150;14.004;2022-08-06T03:09:53;98360.88;;;25.56;59.95
3260;BME280;22469;48.150;14.004;2022-08-06T03:12:23;98347.84;;;25.44;59.98
3260;BME280;22469;48.150;14.004;2022-08-06T03:15:06;98346.47;;;25.50;59.53
3260;BME280;22469;48.150;14.004;2022-08-06T03:17:55;98350.28;;;25.36;59.54
3260;BME280;22469;48.150;14.004;2022-08-06T03:20:29;98348.13;;;25.11;60.03
3260;BME280;22469;48.150;14.004;2022-08-06T03:23:03;98355.66;;;25.25;59.73
3260;BME280;22469;48.150;14.004;2022-08-06T03:25:35;98352.41;;;25.42;59.08
3260;BME280;22469;48.150;14.004;2022-08-06T03:28:09;98342.91;;;25.51;59.24
3260;BME280;22469;48.150;14.004;2022-08-06T03:30:48;98344.28;;;25.55;59.58
3260;BME280;22469;48.150;14.004;2022-08-06T03:33:22;98345.63;;;25.49;60.08
3260;BME280;22469;48.150;14.004;2022-08-06T03:36:10;98339.84;;;25.56;59.83
3260;BME280;22469;48.150;14.004;2022-08-06T03:38:49;98348.72;;;25.64;58.87
3260;BME280;22469;48.150;14.004;2022-08-06T03:41:23;98343.31;;;25.66;58.91
3260;BME280;22469;48.150;14.004;2022-08-06T03:44:00;98345.81;;;25.67;58.24
3260;BME280;22469;48.150;14.004;2022-08-06T03:46:54;98350.94;;;25.69;57.76
3260;BME280;22469;48.150;14.004;2022-08-06T03:49:48;98348.31;;;25.69;57.80
3260;BME280;22469;48.150;14.004;2022-08-06T03:52:26;98353.69;;;25.67;58.39
3260;BME280;22469;48.150;14.004;2022-08-06T03:55:01;98352.75;;;25.68;57.97
3260;BME280;22469;48.150;14.004;2022-08-06T03:57:35;98359.38;;;25.72;58.45
3260;BME280;22469;48.150;14.004;2022-08-06T04:00:19;98358.97;;;25.77;58.23
3260;BME280;22469;48.150;14.004;2022-08-06T04:02:55;98352.63;;;25.80;59.14
3260;BME280;22469;48.150;14.004;2022-08-06T04:05:25;98344.31;;;25.74;57.54
3260;BME280;22469;48.150;14.004;2022-08-06T04:07:59;98351.06;;;25.77;57.11
3260;BME280;22469;48.150;14.004;2022-08-06T04:10:36;98350.25;;;25.76;57.47
3260;BME280;22469;48.150;14.004;2022-08-06T04:13:24;98349.44;;;25.76;56.55
3260;BME280;22469;48.150;14.004;2022-08-06T04:16:13;98351.78;;;25.79;56.35
3260;BME280;22469;48.150;14.004;2022-08-06T04:19:02;98362.00;;;25.72;56.73
3260;BME280;22469;48.150;14.004;2022-08-06T04:21:30;98360.19;;;25.73;56.22
3260;BME280;22469;48.150;14.004;2022-08-06T04:24:17;98366.44;;;25.72;56.44
3260;BME280;22469;48.150;14.004;2022-08-06T04:26:46;98368.78;;;25.75;56.44
3260;BME280;22469;48.150;14.004;2022-08-06T04:29:18;98368.66;;;25.76;56.40
3260;BME280;22469;48.150;14.004;2022-08-06T04:31:50;98369.47;;;25.77;55.63
3260;BME280;22469;48.150;14.004;2022-08-06T04:34:39;98370.72;;;25.73;55.43
3260;BME280;22469;48.150;14.004;2022-08-06T04:37:28;98364.09;;;25.79;55.63
3260;BME280;22469;48.150;14.004;2022-08-06T04:40:08;98363.59;;;25.85;55.76
3260;BME280;22469;48.150;14.004;2022-08-06T04:42:41;98375.47;;;25.89;55.71
3260;BME280;22469;48.150;14.004;2022-08-06T04:45:10;98375.06;;;25.93;56.36
3260;BME280;22469;48.150;14.004;2022-08-06T04:47:58;98379.22;;;25.96;57.24
3260;BME280;22469;48.150;14.004;2022-08-06T04:50:30;98379.78;;;25.99;57.19
3260;BME280;22469;48.150;14.004;2022-08-06T04:53:09;98381.44;;;26.00;56.32
3260;BME280;22469;48.150;14.004;2022-08-06T04:55:55;98382.25;;;26.01;56.48
3260;BME280;22469;48.150;14.004;2022-08-06T04:58:29;98380.75;;;25.98;56.21
3260;BME280;22469;48.150;14.004;2022-08-06T05:00:59;98387.09;;;25.96;55.74
3260;BME280;22469;48.150;14.004;2022-08-06T05:03:35;98386.28;;;25.95;55.57
3260;BME280;22469;48.150;14.004;2022-08-06T05:09:25;98394.03;;;25.97;55.74
3260;BME280;22469;48.150;14.004;2022-08-06T05:12:32;98389.59;;;25.97;56.09
3260;BME280;22469;48.150;14.004;2022-08-06T05:15:33;98394.16;;;25.95;56.43
3260;BME280;22469;48.150;14.004;2022-08-06T05:18:20;98395.25;;;25.93;56.08
3260;BME280;22469;48.150;14.004;2022-08-06T05:21:16;98391.28;;;25.98;56.40
3260;BME280;22469;48.150;14.004;2022-08-06T05:23:51;98395.41;;;26.01;56.36
3260;BME280;22469;48.150;14.004;2022-08-06T05:26:23;98398.03;;;26.11;56.56
3260;BME280;22469;48.150;14.004;2022-08-06T05:28:52;98386.16;;;26.16;56.95
3260;BME280;22469;48.150;14.004;2022-08-06T05:31:33;98389.63;;;26.27;56.99
3260;BME280;22469;48.150;14.004;2022-08-06T05:34:12;98400.97;;;26.27;56.04
3260;BME280;22469;48.150;14.004;2022-08-06T05:36:40;98395.28;;;26.32;55.44
3260;BME280;22469;48.150;14.004;2022-08-06T05:39:09;98400.13;;;26.36;55.27
3260;BME280;22469;48.150;14.004;2022-08-06T05:41:57;98400.53;;;26.32;54.95
3260;BME280;22469;48.150;14.004;2022-08-06T05:44:26;98408.31;;;26.33;55.25
3260;BME280;22469;48.150;14.004;2022-08-06T05:47:03;98406.94;;;26.29;55.18
3260;BME280;22469;48.150;14.004;2022-08-06T05:53:13;98418.00;;;26.23;54.99
3260;BME280;22469;48.150;14.004;2022-08-06T05:55:55;98420.75;;;26.21;55.55
3260;BME280;22469;48.150;14.004;2022-08-06T05:58:30;98422.97;;;26.16;55.47
3260;BME280;22469;48.150;14.004;2022-08-06T06:01:05;98417.56;;;26.18;55.49
3260;BME280;22469;48.150;14.004;2022-08-06T06:03:41;98412.72;;;26.13;55.94
3260;BME280;22469;48.150;14.004;2022-08-06T06:06:08;98420.06;;;26.10;55.83
3260;BME280;22469;48.150;14.004;2022-08-06T06:08:44;98422.97;;;26.07;55.81
3260;BME280;22469;48.150;14.004;2022-08-06T06:11:28;98422.97;;;26.07;55.93
3260;BME280;22469;48.150;14.004;2022-08-06T06:23:38;98436.09;;;26.07;56.52
3260;BME280;22469;48.150;14.004;2022-08-06T06:29:47;98441.63;;;26.04;56.66
3260;BME280;22469;48.150;14.004;2022-08-06T06:32:48;98435.00;;;25.99;56.57
3260;BME280;22469;48.150;14.004;2022-08-06T06:35:39;98436.63;;;26.00;57.06
3260;BME280;22469;48.150;14.004;2022-08-06T06:41:16;98445.78;;;26.06;56.91
3260;BME280;22469;48.150;14.004;2022-08-06T06:46:58;98449.81;;;26.10;56.79
3260;BME280;22469;48.150;14.004;2022-08-06T06:50:09;98446.63;;;26.16;56.63
3260;BME280;22469;48.150;14.004;2022-08-06T06:52:43;98452.19;;;26.23;56.51
3260;BME280;22469;48.150;14.004;2022-08-06T06:58:49;98455.94;;;26.40;56.37
3260;BME280;22469;48.150;14.004;2022-08-06T07:01:20;98463.28;;;26.36;56.47
3260;BME280;22469;48.150;14.004;2022-08-06T07:03:56;98467.13;;;26.42;56.48
3260;BME280;22469;48.150;14.004;2022-08-06T07:06:26;98466.63;;;26.48;56.16
3260;BME280;22469;48.150;14.004;2022-08-06T07:09:17;98461.91;;;26.52;55.70
3260;BME280;22469;48.150;14.004;2022-08-06T07:12:10;98473.41;;;26.51;56.16
3260;BME280;22469;48.150;14.004;2022-08-06T07:14:53;98474.25;;;26.51;55.48
3260;BME280;22469;48.150;14.004;2022-08-06T07:17:28;98468.50;;;26.46;55.63
3260;BME280;22469;48.150;14.004;2022-08-06T07:20:21;98473.38;;;26.41;55.76
3260;BME280;22469;48.150;14.004;2022-08-06T07:23:05;98481.00;;;26.44;55.76
3260;BME280;22469;48.150;14.004;2022-08-06T07:25:55;98474.19;;;26.41;55.79
3260;BME280;22469;48.150;14.004;2022-08-06T07:28:26;98478.78;;;26.39;56.23
3260;BME280;22469;48.150;14.004;2022-08-06T07:30:56;98476.16;;;26.39;56.21
3260;BME280;22469;48.150;14.004;2022-08-06T07:33:38;98480.72;;;26.37;56.25
3260;BME280;22469;48.150;14.004;2022-08-06T07:36:30;98475.03;;;26.42;56.10
3260;BME280;22469;48.150;14.004;2022-08-06T07:39:07;98473.94;;;26.44;56.84
3260;BME280;22469;48.150;14.004;2022-08-06T07:41:43;98478.69;;;26.51;56.02
3260;BME280;22469;48.150;14.004;2022-08-06T07:44:34;98483.47;;;26.45;56.20
3260;BME280;22469;48.150;14.004;2022-08-06T07:47:26;98482.28;;;26.50;56.15
3260;BME280;22469;48.150;14.004;2022-08-06T07:50:13;98486.97;;;26.56;55.81
3260;BME280;22469;48.150;14.004;2022-08-06T07:52:42;98490.16;;;26.59;57.32
3260;BME280;22469;48.150;14.004;2022-08-06T07:55:12;98498.31;;;26.66;58.11
3260;BME280;22469;48.150;14.004;2022-08-06T07:57:41;98494.31;;;26.72;56.82
3260;BME280;22469;48.150;14.004;2022-08-06T08:00:25;98503.16;;;26.80;57.00
3260;BME280;22469;48.150;14.004;2022-08-06T08:02:54;98498.88;;;26.89;56.60
3260;BME280;22469;48.150;14.004;2022-08-06T08:06:04;98509.13;;;26.92;55.88
3260;BME280;22469;48.150;14.004;2022-08-06T08:11:37;98496.09;;;27.00;54.91
3260;BME280;22469;48.150;14.004;2022-08-06T08:14:27;98495.53;;;27.06;54.85
3260;BME280;22469;48.150;14.004;2022-08-06T08:16:55;98494.13;;;27.12;55.21
3260;BME280;22469;48.150;14.004;2022-08-06T08:19:31;98496.25;;;27.18;54.86
3260;BME280;22469;48.150;14.004;2022-08-06T08:24:42;98501.47;;;27.28;54.89
3260;BME280;22469;48.150;14.004;2022-08-06T08:27:20;98510.44;;;27.35;54.52
3260;BME280;22469;48.150;14.004;2022-08-06T08:29:51;98505.59;;;27.40;54.30
3260;BME280;22469;48.150;14.004;2022-08-06T08:32:23;98514.53;;;27.20;54.20
3260;BME280;22469;48.150;14.004;2022-08-06T08:34:52;98519.34;;;27.24;53.81
3260;BME280;22469;48.150;14.004;2022-08-06T08:37:21;98517.59;;;27.15;54.56
3260;BME280;22469;48.150;14.004;2022-08-06T08:39:49;98511.34;;;27.16;54.77
3260;BME280;22469;48.150;14.004;2022-08-06T08:42:50;98521.59;;;27.00;54.51
3260;BME280;22469;48.150;14.004;2022-08-06T08:45:21;98536.72;;;26.68;53.74
3260;BME280;22469;48.150;14.004;2022-08-06T08:48:01;98548.38;;;26.16;53.23
3260;BME280;22469;48.150;14.004;2022-08-06T08:50:31;98547.84;;;25.91;54.32
3260;BME280;22469;48.150;14.004;2022-08-06T08:53:13;98544.72;;;25.76;53.83
3260;BME280;22469;48.150;14.004;2022-08-06T08:56:01;98542.81;;;25.48;54.27
3260;BME280;22469;48.150;14.004;2022-08-06T08:58:49;98556.59;;;25.08;56.25
3260;BME280;22469;48.150;14.004;2022-08-06T09:01:36;98566.94;;;25.00;55.73
3260;BME280;22469;48.150;14.004;2022-08-06T09:04:22;98574.19;;;24.64;55.86
3260;BME280;22469;48.150;14.004;2022-08-06T09:06:55;98576.16;;;24.28;56.81
3260;BME280;22469;48.150;14.004;2022-08-06T09:09:24;98575.38;;;23.94;57.99
3260;BME280;22469;48.150;14.004;2022-08-06T09:11:58;98581.53;;;23.71;58.99
3260;BME280;22469;48.150;14.004;2022-08-06T09:14:46;98569.34;;;23.47;60.38
3260;BME280;22469;48.150;14.004;2022-08-06T09:17:13;98570.28;;;23.46;60.51
3260;BME280;22469;48.150;14.004;2022-08-06T09:20:01;98583.81;;;23.29;60.78
3260;BME280;22469;48.150;14.004;2022-08-06T09:22:33;98593.41;;;23.17;61.18
3260;BME280;22469;48.150;14.004;2022-08-06T09:25:03;98592.09;;;23.11;61.50
3260;BME280;22469;48.150;14.004;2022-08-06T09:27:34;98602.84;;;22.96;62.47
3260;BME280;22469;48.150;14.004;2022-08-06T09:30:15;98607.91;;;23.10;62.28
3260;BME280;22469;48.150;14.004;2022-08-06T09:32:55;98599.69;;;23.14;61.72
3260;BME280;22469;48.150;14.004;2022-08-06T09:35:29;98607.44;;;23.16;61.00
3260;BME280;22469;48.150;14.004;2022-08-06T09:38:13;98608.13;;;23.07;61.69
3260;BME280;22469;48.150;14.004;2022-08-06T09:43:43;98613.25;;;23.08;62.02
3260;BME280;22469;48.150;14.004;2022-08-06T09:46:43;98614.78;;;23.11;62.12
3260;BME280;22469;48.150;14.004;2022-08-06T09:49:15;98624.56;;;23.09;62.11
3260;BME280;22469;48.150;14.004;2022-08-06T09:52:14;98631.22;;;23.13;63.18
3260;BME280;22469;48.150;14.004;2022-08-06T09:54:43;98632.06;;;23.13;63.32
3260;BME280;22469;48.150;14.004;2022-08-06T09:57:23;98631.84;;;23.16;63.14
3260;BME280;22469;48.150;14.004;2022-08-06T10:00:03;98627.88;;;23.11;64.12
3260;BME280;22469;48.150;14.004;2022-08-06T10:02:40;98638.31;;;23.00;64.18
3260;BME280;22469;48.150;14.004;2022-08-06T10:05:18;98633.78;;;22.78;65.17
3260;BME280;22469;48.150;14.004;2022-08-06T10:08:02;98643.16;;;22.80;65.91
3260;BME280;22469;48.150;14.004;2022-08-06T10:13:20;98650.09;;;22.81;67.02
3260;BME280;22469;48.150;14.004;2022-08-06T10:16:18;98646.09;;;22.76;65.72
3260;BME280;22469;48.150;14.004;2022-08-06T10:18:55;98648.47;;;22.55;66.51
3260;BME280;22469;48.150;14.004;2022-08-06T10:21:30;98646.63;;;22.44;66.23
3260;BME280;22469;48.150;14.004;2022-08-06T10:24:12;98659.56;;;22.45;66.16
3260;BME280;22469;48.150;14.004;2022-08-06T10:27:08;98663.78;;;22.35;66.05
3260;BME280;22469;48.150;14.004;2022-08-06T10:29:54;98667.75;;;22.41;65.94
3260;BME280;22469;48.150;14.004;2022-08-06T10:35:04;98662.66;;;22.39;65.61
3260;BME280;22469;48.150;14.004;2022-08-06T10:37:39;98663.56;;;22.38;65.29
3260;BME280;22469;48.150;14.004;2022-08-06T10:40:17;98668.59;;;22.29;66.24
3260;BME280;22469;48.150;14.004;2022-08-06T10:43:06;98685.84;;;22.31;66.11
3260;BME280;22469;48.150;14.004;2022-08-06T10:45:38;98691.06;;;22.31;67.29
3260;BME280;22469;48.150;14.004;2022-08-06T10:48:17;98696.09;;;22.34;67.83
3260;BME280;22469;48.150;14.004;2022-08-06T10:51:07;98699.25;;;22.27;66.99
3260;BME280;22469;48.150;14.004;2022-08-06T10:53:36;98702.06;;;22.23;66.48
3260;BME280;22469;48.150;14.004;2022-08-06T10:56:25;98694.56;;;22.19;68.08
3260;BME280;22469;48.150;14.004;2022-08-06T10:59:06;98693.06;;;22.28;67.84
3260;BME280;22469;48.150;14.004;2022-08-06T11:04:49;98699.00;;;22.42;69.26
3260;BME280;22469;48.150;14.004;2022-08-06T11:11:20;98689.06;;;22.47;68.07
3260;BME280;22469;48.150;14.004;2022-08-06T11:14:11;98697.75;;;22.48;68.48
3260;BME280;22469;48.150;14.004;2022-08-06T11:16:58;98698.16;;;22.55;68.54
3260;BME280;22469;48.150;14.004;2022-08-06T11:19:47;98696.16;;;22.58;68.53
3260;BME280;22469;48.150;14.004;2022-08-06T11:22:35;98693.56;;;22.58;68.58
3260;BME280;22469;48.150;14.004;2022-08-06T11:25:07;98695.56;;;22.55;68.62
3260;BME280;22469;48.150;14.004;2022-08-06T11:27:51;98698.56;;;22.61;69.19
3260;BME280;22469;48.150;14.004;2022-08-06T11:30:38;98699.53;;;22.60;68.87
3260;BME280;22469;48.150;14.004;2022-08-06T11:36:24;98698.97;;;22.68;67.19
3260;BME280;22469;48.150;14.004;2022-08-06T11:41:31;98699.81;;;22.68;67.52
3260;BME280;22469;48.150;14.004;2022-08-06T11:44:31;98695.22;;;22.59;65.62
3260;BME280;22469;48.150;14.004;2022-08-06T11:55:09;98706.63;;;22.58;66.17
3260;BME280;22469;48.150;14.004;2022-08-06T11:58:15;98700.34;;;22.61;65.94
3260;BME280;22469;48.150;14.004;2022-08-06T12:01:00;98703.19;;;22.58;66.59
3260;BME280;22469;48.150;14.004;2022-08-06T12:03:48;98705.59;;;22.61;66.49
3260;BME280;22469;48.150;14.004;2022-08-06T12:06:20;98700.34;;;22.61;67.80
3260;BME280;22469;48.150;14.004;2022-08-06T12:09:10;98702.84;;;22.62;67.47
3260;BME280;22469;48.150;14.004;2022-08-06T12:11:50;98708.84;;;22.52;66.99
3260;BME280;22469;48.150;14.004;2022-08-06T12:14:39;98711.25;;;22.55;67.43
3260;BME280;22469;48.150;14.004;2022-08-06T12:17:20;98709.66;;;22.52;67.59
3260;BME280;22469;48.150;14.004;2022-08-06T12:20:11;98708.84;;;22.52;68.32
3260;BME280;22469;48.150;14.004;2022-08-06T12:22:59;98710.41;;;22.54;68.86
3260;BME280;22469;48.150;14.004;2022-08-06T12:28:02;98713.09;;;22.53;69.35
3260;BME280;22469;48.150;14.004;2022-08-06T12:30:50;98712.91;;;22.56;69.21
3260;BME280;22469;48.150;14.004;2022-08-06T12:33:20;98716.69;;;22.52;68.52
3260;BME280;22469;48.150;14.004;2022-08-06T12:36:00;98722.44;;;22.57;68.42
3260;BME280;22469;48.150;14.004;2022-08-06T12:38:31;98724.53;;;22.52;68.85
3260;BME280;22469;48.150;14.004;2022-08-06T12:41:06;98720.25;;;22.51;68.81
3260;BME280;22469;48.150;14.004;2022-08-06T12:43:41;98724.53;;;22.52;69.40
3260;BME280;22469;48.150;14.004;2022-08-06T12:46:24;98715.00;;;22.51;69.52
3260;BME280;22469;48.150;14.004;2022-08-06T12:48:56;98723.06;;;22.47;68.76
3260;BME280;22469;48.150;14.004;2022-08-06T12:51:29;98721.28;;;22.48;69.26
3260;BME280;22469;48.150;14.004;2022-08-06T12:54:02;98716.88;;;22.48;68.58
3260;BME280;22469;48.150;14.004;2022-08-06T12:56:33;98717.09;;;22.45;68.12
3260;BME280;22469;48.150;14.004;2022-08-06T12:59:08;98721.50;;;22.45;68.41
3260;BME280;22469;48.150;14.004;2022-08-06T13:01:50;98714.41;;;22.47;68.93
3260;BME280;22469;48.150;14.004;2022-08-06T13:04:40;98715.22;;;22.47;68.77
3260;BME280;22469;48.150;14.004;2022-08-06T13:07:11;98718.78;;;22.46;67.87
3260;BME280;22469;48.150;14.004;2022-08-06T13:09:42;98717.31;;;22.42;67.38
3260;BME280;22469;48.150;14.004;2022-08-06T13:12:30;98711.56;;;22.37;65.52
3260;BME280;22469;48.150;14.004;2022-08-06T13:15:17;98710.22;;;22.32;65.87
3260;BME280;22469;48.150;14.004;2022-08-06T13:20:55;98712.19;;;22.28;68.80
3260;BME280;22469;48.150;14.004;2022-08-06T13:23:36;98716.38;;;22.31;68.70
3260;BME280;22469;48.150;14.004;2022-08-06T13:29:08;98716.06;;;22.35;68.99
3260;BME280;22469;48.150;14.004;2022-08-06T13:32:05;98720.25;;;22.38;69.35
3260;BME280;22469;48.150;14.004;2022-08-06T13:34:59;98720.25;;;22.38;68.58
3260;BME280;22469;48.150;14.004;2022-08-06T13:37:49;98719.00;;;22.43;69.48
3260;BME280;22469;48.150;14.004;2022-08-06T13:40:40;98715.22;;;22.47;69.72
3260;BME280;22469;48.150;14.004;2022-08-06T13:43:18;98707.16;;;22.51;68.03
3260;BME280;22469;48.150;14.004;2022-08-06T13:46:15;98704.97;;;22.57;66.87
3260;BME280;22469;48.150;14.004;2022-08-06T13:48:54;98709.97;;;22.60;68.04
3260;BME280;22469;48.150;14.004;2022-08-06T13:51:28;98715.94;;;22.62;66.99
3260;BME280;22469;48.150;14.004;2022-08-06T13:54:02;98724.31;;;22.67;67.32
3260;BME280;22469;48.150;14.004;2022-08-06T13:56:45;98720.94;;;22.65;66.02
3260;BME280;22469;48.150;14.004;2022-08-06T13:59:18;98721.78;;;22.66;66.03
3260;BME280;22469;48.150;14.004;2022-08-06T14:01:48;98722.59;;;22.66;66.08
3260;BME280;22469;48.150;14.004;2022-08-06T14:04:20;98724.09;;;22.70;67.52
3260;BME280;22469;48.150;14.004;2022-08-06T14:06:53;98727.41;;;22.73;67.81
3260;BME280;22469;48.150;14.004;2022-08-06T14:09:28;98724.78;;;22.73;67.00
3260;BME280;22469;48.150;14.004;2022-08-06T14:12:17;98727.94;;;22.78;67.40
3260;BME280;22469;48.150;14.004;2022-08-06T14:14:46;98726.16;;;22.78;67.25
3260;BME280;22469;48.150;14.004;2022-08-06T14:17:16;98730.34;;;22.81;67.79
3260;BME280;22469;48.150;14.004;2022-08-06T14:19:45;98729.19;;;22.85;67.67
3260;BME280;22469;48.150;14.004;2022-08-06T14:22:32;98728.75;;;22.91;67.91
3260;BME280;22469;48.150;14.004;2022-08-06T14:27:33;98732.72;;;22.97;66.74
3260;BME280;22469;48.150;14.004;2022-08-06T14:30:09;98737.03;;;22.98;66.31
3260;BME280;22469;48.150;14.004;2022-08-06T14:32:57;98738.34;;;23.03;65.19
3260;BME280;22469;48.150;14.004;2022-08-06T14:35:45;98739.94;;;23.06;66.35
3260;BME280;22469;48.150;14.004;2022-08-06T14:38:21;98733.75;;;23.07;65.59
3260;BME280;22469;48.150;14.004;2022-08-06T14:40:59;98724.97;;;23.08;66.01
3260;BME280;22469;48.150;14.004;2022-08-06T14:44:06;98723.28;;;23.07;65.81
3260;BME280;22469;48.150;14.004;2022-08-06T14:46:53;98727.34;;;23.11;65.58
3260;BME280;22469;48.150;14.004;2022-08-06T14:49:20;98730.63;;;23.02;64.61
3260;BME280;22469;48.150;14.004;2022-08-06T14:51:48;98727.28;;;23.00;64.84
3260;BME280;22469;48.150;14.004;2022-08-06T14:54:35;98725.69;;;22.97;65.10
3260;BME280;22469;48.150;14.004;2022-08-06T14:57:09;98721.22;;;22.99;64.33
3260;BME280;22469;48.150;14.004;2022-08-06T14:59:46;98724.97;;;23.08;64.44
3260;BME280;22469;48.150;14.004;2022-08-06T15:02:23;98722.16;;;22.98;63.60
3260;BME280;22469;48.150;14.004;2022-08-06T15:04:53;98729.34;;;23.07;65.03
3260;BME280;22469;48.150;14.004;2022-08-06T15:07:22;98730.06;;;23.09;64.03
3260;BME280;22469;48.150;14.004;2022-08-06T15:09:53;98723.56;;;23.15;64.59
3260;BME280;22469;48.150;14.004;2022-08-06T15:12:32;98731.31;;;23.16;64.64
3260;BME280;22469;48.150;14.004;2022-08-06T15:15:08;98732.03;;;23.18;62.93
3260;BME280;22469;48.150;14.004;2022-08-06T15:17:40;98730.13;;;23.21;64.08
3260;BME280;22469;48.150;14.004;2022-08-06T15:20:27;98731.69;;;23.23;64.05
3260;BME280;22469;48.150;14.004;2022-08-06T15:22:55;98727.28;;;23.24;64.48
3260;BME280;22469;48.150;14.004;2022-08-06T15:25:25;98730.66;;;23.26;64.40
3260;BME280;22469;48.150;14.004;2022-08-06T15:28:12;98729.69;;;23.27;63.62